createdAt,value
2018-03-07T00:00:12.169Z,112.00
2018-03-07T00:01:12.188Z,107.70
2018-03-07T00:02:12.202Z,111.80
2018-03-07T00:03:12.218Z,110.40
2018-03-07T00:04:12.238Z,108.70
2018-03-07T00:05:12.258Z,111.30
2018-03-07T00:06:12.282Z,110.00
2018-03-07T00:07:12.299Z,113.40
2018-03-07T00:08:12.319Z,113.50
2018-03-07T00:09:12.346Z,107.90
2018-03-07T00:10:12.357Z,111.80
2018-03-07T00:11:12.371Z,110.90
2018-03-07T00:12:12.400Z,112.30
2018-03-07T00:13:12.418Z,109.80
2018-03-07T00:14:12.437Z,109.90
2018-03-07T00:15:12.454Z,111.30
2018-03-07T00:16:12.471Z,109.50
2018-03-07T00:17:12.494Z,113.70
2018-03-07T00:18:12.507Z,110.50
2018-03-07T00:19:12.534Z,110.50
2018-03-07T00:20:12.550Z,111.60
2018-03-07T00:21:12.566Z,118.40
2018-03-07T00:22:12.587Z,112.50
2018-03-07T00:23:12.606Z,115.80
2018-03-07T00:24:12.636Z,113.10
2018-03-07T00:25:12.641Z,114.10
2018-03-07T00:26:12.664Z,109.60
2018-03-07T00:27:12.684Z,113.70
2018-03-07T00:28:12.696Z,117.10
2018-03-07T00:29:12.724Z,109.40
2018-03-07T00:30:12.739Z,110.10
2018-03-07T00:31:12.756Z,117.40
2018-03-07T00:32:12.775Z,113.70
2018-03-07T00:33:12.800Z,114.30
2018-03-07T00:34:12.818Z,111.20
2018-03-07T00:35:12.830Z,111.60
2018-03-07T00:36:12.854Z,111.50
2018-03-07T00:37:12.871Z,112.70
2018-03-07T00:38:12.894Z,114.10
2018-03-07T00:39:12.916Z,114.30
2018-03-07T00:40:12.931Z,113.20
2018-03-07T00:41:12.954Z,114.80
2018-03-07T00:42:12.970Z,113.20
2018-03-07T00:43:12.984Z,114.50
2018-03-07T00:44:13.006Z,114.20
2018-03-07T00:45:13.025Z,112.40
2018-03-07T00:46:13.044Z,112.40
2018-03-07T00:47:13.060Z,113.10
2018-03-07T00:48:13.080Z,114.10
2018-03-07T00:49:13.099Z,119.50
2018-03-07T00:50:13.119Z,118.40
2018-03-07T00:51:13.141Z,122.30
2018-03-07T00:52:13.158Z,118.70
2018-03-07T00:53:13.179Z,119.50
2018-03-07T00:54:13.199Z,120.00
2018-03-07T00:55:13.214Z,117.60
2018-03-07T00:56:13.230Z,118.70
2018-03-07T00:57:13.254Z,124.20
2018-03-07T00:58:13.279Z,117.40
2018-03-07T00:59:13.293Z,118.50
2018-03-07T01:00:13.314Z,118.90
2018-03-07T01:01:13.324Z,119.20
2018-03-07T01:02:13.346Z,120.30
2018-03-07T01:03:13.363Z,118.90
2018-03-07T01:04:13.387Z,118.70
2018-03-07T01:05:13.404Z,117.00
2018-03-07T01:06:13.427Z,119.70
2018-03-07T01:07:13.448Z,120.60
2018-03-07T01:08:13.462Z,121.10
2018-03-07T01:09:13.478Z,119.60
2018-03-07T01:10:13.501Z,123.70
2018-03-07T01:11:13.515Z,124.10
2018-03-07T01:12:13.536Z,119.00
2018-03-07T01:13:13.553Z,122.90
2018-03-07T01:14:13.576Z,122.10
2018-03-07T01:15:13.594Z,121.70
2018-03-07T01:16:13.613Z,121.70
2018-03-07T01:17:13.629Z,120.90
2018-03-07T01:18:13.655Z,120.10
2018-03-07T01:19:13.681Z,124.40
2018-03-07T01:20:13.688Z,120.80
2018-03-07T01:21:13.707Z,120.90
2018-03-07T01:22:13.723Z,120.70
2018-03-07T01:23:13.747Z,124.70
2018-03-07T01:24:13.761Z,121.20
2018-03-07T01:25:13.792Z,122.80
2018-03-07T01:26:13.799Z,120.70
2018-03-07T01:27:13.818Z,119.20
2018-03-07T01:28:13.840Z,122.60
2018-03-07T01:29:13.859Z,119.00
2018-03-07T01:30:13.871Z,122.00
2018-03-07T01:31:13.892Z,123.20
2018-03-07T01:32:13.914Z,121.30
2018-03-07T01:33:13.933Z,122.70
2018-03-07T01:34:13.958Z,120.90
2018-03-07T01:35:13.970Z,122.70
2018-03-07T01:36:13.993Z,126.60
2018-03-07T01:37:14.007Z,122.90
2018-03-07T01:38:14.022Z,122.90
2018-03-07T01:39:14.042Z,122.20
2018-03-07T01:40:14.061Z,122.60
2018-03-07T01:41:14.082Z,120.60
2018-03-07T01:42:14.101Z,119.50
2018-03-07T01:43:14.122Z,124.50
2018-03-07T01:44:14.136Z,125.90
2018-03-07T01:45:14.160Z,124.10
2018-03-07T01:46:14.178Z,124.50
2018-03-07T01:47:14.192Z,124.10
2018-03-07T01:48:14.212Z,120.70
2018-03-07T01:49:14.231Z,123.20
2018-03-07T01:50:14.263Z,121.40
2018-03-07T01:51:14.271Z,122.60
2018-03-07T01:52:14.291Z,117.20
2018-03-07T01:53:14.306Z,124.00
2018-03-07T01:54:14.326Z,117.10
2018-03-07T01:55:14.345Z,122.50
2018-03-07T01:56:14.374Z,125.20
2018-03-07T01:57:14.385Z,123.40
2018-03-07T01:58:14.400Z,124.50
2018-03-07T01:59:14.416Z,120.60
2018-03-07T02:00:14.444Z,123.20
2018-03-07T02:01:14.455Z,121.20
2018-03-07T02:02:14.475Z,126.10
2018-03-07T02:03:14.494Z,122.30
2018-03-07T02:04:14.509Z,124.70
2018-03-07T02:05:14.537Z,122.40
2018-03-07T02:06:14.553Z,123.40
2018-03-07T02:07:14.574Z,121.10
2018-03-07T02:08:14.593Z,121.20
2018-03-07T02:09:14.604Z,120.10
2018-03-07T02:10:14.626Z,121.00
2018-03-07T02:11:14.642Z,120.50
2018-03-07T02:12:14.661Z,122.60
2018-03-07T02:13:14.685Z,121.30
2018-03-07T02:14:14.701Z,122.80
2018-03-07T02:15:14.719Z,120.00
2018-03-07T02:16:14.738Z,120.20
2018-03-07T02:17:14.754Z,118.90
2018-03-07T02:18:14.775Z,124.20
2018-03-07T02:19:14.795Z,119.00
2018-03-07T02:20:14.810Z,119.70
2018-03-07T02:21:14.830Z,118.60
2018-03-07T02:22:14.850Z,122.40
2018-03-07T02:23:14.872Z,125.40
2018-03-07T02:24:14.887Z,122.40
2018-03-07T02:25:14.908Z,120.30
2018-03-07T02:26:14.924Z,127.70
2018-03-07T02:27:14.940Z,122.50
2018-03-07T02:28:14.969Z,119.80
2018-03-07T02:29:14.983Z,126.50
2018-03-07T02:30:14.999Z,126.30
2018-03-07T02:31:15.019Z,119.10
2018-03-07T02:32:15.038Z,115.70
2018-03-07T02:33:15.062Z,120.80
2018-03-07T02:34:15.078Z,117.70
2018-03-07T02:35:15.098Z,116.20
2018-03-07T02:36:15.120Z,118.30
2018-03-07T02:37:15.142Z,120.50
2018-03-07T02:38:15.148Z,115.40
2018-03-07T02:39:15.163Z,120.20
2018-03-07T02:40:15.186Z,117.40
2018-03-07T02:41:15.207Z,115.20
2018-03-07T02:42:15.223Z,118.60
2018-03-07T02:43:15.251Z,118.40
2018-03-07T02:44:15.264Z,118.30
2018-03-07T02:45:15.280Z,117.70
2018-03-07T02:46:15.303Z,121.10
2018-03-07T02:47:15.321Z,120.20
2018-03-07T02:48:15.338Z,122.20
2018-03-07T02:49:15.354Z,118.90
2018-03-07T02:50:15.375Z,123.00
2018-03-07T02:51:15.388Z,122.40
2018-03-07T02:52:15.408Z,121.80
2018-03-07T02:53:15.431Z,122.70
2018-03-07T02:54:15.452Z,117.90
2018-03-07T02:55:15.467Z,121.70
2018-03-07T02:56:15.489Z,122.90
2018-03-07T02:57:15.503Z,120.50
2018-03-07T02:58:15.522Z,122.60
2018-03-07T02:59:15.537Z,124.10
2018-03-07T03:00:15.562Z,118.10
2018-03-07T03:01:15.581Z,115.60
2018-03-07T03:02:15.597Z,118.60
2018-03-07T03:03:15.611Z,118.40
2018-03-07T03:04:15.637Z,121.80
2018-03-07T03:05:15.652Z,121.20
2018-03-07T03:06:15.674Z,121.30
2018-03-07T03:07:15.686Z,116.90
2018-03-07T03:08:15.704Z,123.60
2018-03-07T03:09:15.725Z,120.10
2018-03-07T03:10:15.749Z,121.50
2018-03-07T03:11:15.767Z,119.50
2018-03-07T03:12:15.783Z,120.60
2018-03-07T03:13:15.804Z,124.40
2018-03-07T03:14:15.825Z,119.90
2018-03-07T03:15:15.839Z,123.00
2018-03-07T03:16:15.859Z,122.90
2018-03-07T03:17:15.875Z,121.60
2018-03-07T03:18:15.895Z,121.10
2018-03-07T03:19:15.915Z,121.80
2018-03-07T03:20:15.931Z,123.20
2018-03-07T03:21:15.951Z,120.70
2018-03-07T03:22:15.973Z,124.30
2018-03-07T03:23:15.993Z,121.30
2018-03-07T03:24:16.009Z,124.10
2018-03-07T03:25:16.028Z,123.00
2018-03-07T03:26:16.047Z,121.70
2018-03-07T03:27:16.067Z,120.70
2018-03-07T03:28:16.086Z,124.70
2018-03-07T03:29:16.105Z,127.10
2018-03-07T03:30:16.124Z,125.00
2018-03-07T03:31:16.139Z,123.10
2018-03-07T03:32:16.161Z,119.50
2018-03-07T03:33:16.183Z,121.80
2018-03-07T03:34:16.195Z,125.10
2018-03-07T03:35:16.215Z,127.80
2018-03-07T03:36:16.234Z,122.90
2018-03-07T03:37:16.254Z,125.00
2018-03-07T03:38:16.270Z,124.90
2018-03-07T03:39:16.293Z,125.80
2018-03-07T03:40:16.307Z,120.80
2018-03-07T03:41:16.329Z,124.30
2018-03-07T03:42:16.344Z,122.50
2018-03-07T03:43:16.364Z,125.70
2018-03-07T03:44:16.382Z,124.80
2018-03-07T03:45:16.408Z,119.50
2018-03-07T03:46:16.427Z,123.30
2018-03-07T03:47:16.439Z,124.70
2018-03-07T03:48:16.458Z,125.60
2018-03-07T03:49:16.473Z,125.90
2018-03-07T03:50:16.495Z,128.20
2018-03-07T03:51:16.513Z,124.30
2018-03-07T03:52:16.533Z,127.80
2018-03-07T03:53:16.548Z,127.20
2018-03-07T03:54:16.568Z,121.80
2018-03-07T03:55:16.588Z,119.10
2018-03-07T03:56:16.607Z,124.30
2018-03-07T03:57:16.623Z,123.50
2018-03-07T03:58:16.643Z,127.00
2018-03-07T03:59:16.661Z,124.90
2018-03-07T04:00:16.681Z,127.70
2018-03-07T04:01:16.703Z,125.00
2018-03-07T04:02:16.718Z,123.70
2018-03-07T04:03:16.735Z,127.20
2018-03-07T04:04:16.756Z,125.90
2018-03-07T04:05:16.777Z,124.50
2018-03-07T04:06:16.798Z,123.40
2018-03-07T04:07:16.818Z,125.50
2018-03-07T04:08:16.832Z,127.50
2018-03-07T04:09:16.850Z,125.60
2018-03-07T04:10:16.868Z,126.10
2018-03-07T04:11:16.883Z,123.00
2018-03-07T04:12:16.903Z,128.80
2018-03-07T04:13:16.925Z,122.40
2018-03-07T04:14:16.942Z,124.80
2018-03-07T04:15:16.962Z,126.10
2018-03-07T04:16:16.980Z,123.50
2018-03-07T04:17:16.996Z,124.00
2018-03-07T04:18:17.022Z,126.40
2018-03-07T04:19:17.035Z,123.70
2018-03-07T04:20:17.056Z,126.20
2018-03-07T04:21:17.071Z,125.90
2018-03-07T04:22:17.096Z,127.60
2018-03-07T04:23:17.123Z,121.80
2018-03-07T04:24:17.126Z,123.00
2018-03-07T04:25:17.152Z,126.20
2018-03-07T04:26:17.172Z,125.40
2018-03-07T04:27:17.184Z,127.40
2018-03-07T04:28:17.201Z,128.10
2018-03-07T04:29:17.225Z,126.90
2018-03-07T04:30:17.241Z,126.40
2018-03-07T04:31:17.262Z,123.20
2018-03-07T04:32:17.276Z,124.90
2018-03-07T04:33:17.297Z,130.70
2018-03-07T04:34:17.317Z,131.00
2018-03-07T04:35:17.331Z,127.80
2018-03-07T04:36:17.354Z,128.50
2018-03-07T04:37:17.374Z,129.60
2018-03-07T04:38:17.385Z,132.60
2018-03-07T04:39:17.409Z,127.10
2018-03-07T04:40:17.426Z,123.40
2018-03-07T04:41:17.441Z,129.20
2018-03-07T04:42:17.464Z,131.20
2018-03-07T04:43:17.480Z,129.60
2018-03-07T04:44:17.500Z,133.60
2018-03-07T04:45:17.515Z,122.60
2018-03-07T04:46:17.540Z,130.30
2018-03-07T04:47:17.555Z,125.10
2018-03-07T04:48:17.571Z,133.70
2018-03-07T04:49:17.595Z,128.60
2018-03-07T04:50:17.614Z,131.20
2018-03-07T04:51:17.632Z,125.80
2018-03-07T04:52:17.650Z,128.50
2018-03-07T04:53:17.671Z,132.40
2018-03-07T04:54:17.692Z,131.90
2018-03-07T04:55:17.708Z,130.80
2018-03-07T04:56:17.727Z,127.20
2018-03-07T04:57:17.744Z,130.40
2018-03-07T04:58:17.764Z,134.60
2018-03-07T04:59:17.781Z,133.90
2018-03-07T05:00:17.800Z,134.80
2018-03-07T05:01:17.814Z,129.50
2018-03-07T05:02:17.837Z,130.20
2018-03-07T05:03:17.851Z,131.70
2018-03-07T05:04:17.875Z,140.80
2018-03-07T05:05:17.889Z,133.00
2018-03-07T05:06:17.909Z,132.70
2018-03-07T05:07:17.929Z,133.20
2018-03-07T05:08:17.948Z,133.20
2018-03-07T05:09:17.969Z,135.10
2018-03-07T05:10:17.988Z,136.80
2018-03-07T05:11:18.004Z,128.10
2018-03-07T05:12:18.023Z,134.00
2018-03-07T05:13:18.043Z,131.60
2018-03-07T05:14:18.058Z,138.40
2018-03-07T05:15:18.080Z,131.70
2018-03-07T05:16:18.099Z,134.90
2018-03-07T05:17:18.116Z,129.70
2018-03-07T05:18:18.133Z,132.60
2018-03-07T05:19:18.154Z,140.70
2018-03-07T05:20:18.175Z,139.30
2018-03-07T05:21:18.193Z,137.70
2018-03-07T05:22:18.206Z,134.20
2018-03-07T05:23:18.234Z,135.00
2018-03-07T05:24:18.248Z,140.60
2018-03-07T05:25:18.267Z,137.80
2018-03-07T05:26:18.287Z,139.00
2018-03-07T05:27:18.307Z,134.90
2018-03-07T05:28:18.320Z,133.00
2018-03-07T05:29:18.344Z,133.50
2018-03-07T05:30:18.359Z,133.60
2018-03-07T05:31:18.379Z,138.20
2018-03-07T05:32:18.396Z,135.70
2018-03-07T05:33:18.417Z,133.00
2018-03-07T05:34:18.432Z,139.40
2018-03-07T05:35:18.510Z,137.70
2018-03-07T05:36:18.470Z,137.70
2018-03-07T05:37:18.497Z,140.10
2018-03-07T05:38:18.516Z,137.10
2018-03-07T05:39:18.541Z,138.90
2018-03-07T05:40:18.550Z,138.50
2018-03-07T05:41:18.564Z,142.40
2018-03-07T05:42:18.583Z,138.40
2018-03-07T05:43:18.604Z,137.00
2018-03-07T05:44:18.621Z,138.30
2018-03-07T05:45:18.645Z,142.40
2018-03-07T05:46:18.655Z,136.80
2018-03-07T05:47:18.678Z,136.90
2018-03-07T05:48:18.692Z,141.60
2018-03-07T05:49:18.711Z,140.80
2018-03-07T05:50:18.735Z,138.20
2018-03-07T05:51:18.752Z,145.70
2018-03-07T05:52:18.766Z,136.60
2018-03-07T05:53:18.790Z,146.20
2018-03-07T05:54:18.810Z,141.70
2018-03-07T05:55:18.832Z,137.70
2018-03-07T05:56:18.847Z,137.70
2018-03-07T05:57:18.861Z,143.10
2018-03-07T05:58:18.883Z,140.40
2018-03-07T05:59:18.904Z,135.60
2018-03-07T06:00:18.922Z,139.20
2018-03-07T06:01:18.941Z,142.00
2018-03-07T06:02:18.956Z,141.60
2018-03-07T06:03:18.975Z,144.40
2018-03-07T06:04:18.991Z,141.70
2018-03-07T06:05:19.010Z,138.80
2018-03-07T06:06:19.030Z,141.40
2018-03-07T06:07:19.065Z,147.90
2018-03-07T06:08:19.072Z,141.00
2018-03-07T06:09:19.084Z,149.70
2018-03-07T06:10:19.148Z,148.00
2018-03-07T06:11:19.124Z,144.80
2018-03-07T06:12:19.144Z,143.10
2018-03-07T06:13:19.166Z,141.10
2018-03-07T06:14:19.178Z,146.80
2018-03-07T06:15:19.200Z,141.50
2018-03-07T06:16:19.217Z,145.10
2018-03-07T06:17:19.236Z,151.90
2018-03-07T06:18:19.258Z,148.40
2018-03-07T06:19:19.276Z,149.20
2018-03-07T06:20:19.290Z,149.20
2018-03-07T06:21:19.308Z,146.20
2018-03-07T06:22:19.328Z,147.80
2018-03-07T06:23:19.345Z,145.00
2018-03-07T06:24:19.364Z,141.50
2018-03-07T06:25:19.384Z,144.60
2018-03-07T06:26:19.399Z,146.00
2018-03-07T06:27:19.423Z,148.30
2018-03-07T06:28:19.444Z,152.20
2018-03-07T06:29:19.458Z,146.70
2018-03-07T06:30:19.488Z,157.40
2018-03-07T06:31:19.498Z,143.50
2018-03-07T06:32:19.517Z,143.00
2018-03-07T06:33:19.530Z,147.00
2018-03-07T06:34:19.803Z,143.70
2018-03-07T06:35:19.568Z,144.10
2018-03-07T06:36:19.598Z,149.50
2018-03-07T06:37:19.608Z,148.40
2018-03-07T06:38:19.626Z,142.60
2018-03-07T06:39:19.643Z,151.30
2018-03-07T06:40:19.663Z,159.80
2018-03-07T06:41:19.679Z,164.20
2018-03-07T06:42:19.698Z,167.40
2018-03-07T06:43:19.725Z,163.60
2018-03-07T06:44:19.740Z,166.00
2018-03-07T06:45:19.761Z,178.10
2018-03-07T06:46:19.773Z,198.10
2018-03-07T06:47:19.797Z,185.10
2018-03-07T06:48:19.809Z,192.90
2018-03-07T06:49:19.846Z,196.50
2018-03-07T06:50:19.870Z,198.40
2018-03-07T06:51:19.872Z,189.70
2018-03-07T06:52:19.886Z,199.20
2018-03-07T06:53:19.906Z,190.20
2018-03-07T06:54:19.921Z,199.20
2018-03-07T06:55:19.942Z,205.10
2018-03-07T06:56:19.953Z,210.90
2018-03-07T06:57:19.973Z,209.20
2018-03-07T06:58:19.995Z,200.90
2018-03-07T06:59:20.014Z,198.70
2018-03-07T07:00:20.027Z,199.80
2018-03-07T07:01:20.042Z,203.20
2018-03-07T07:02:20.316Z,210.30
2018-03-07T07:03:20.090Z,217.60
2018-03-07T07:04:20.096Z,214.30
2018-03-07T07:05:20.123Z,199.00
2018-03-07T07:06:20.136Z,229.50
2018-03-07T07:07:20.157Z,207.10
2018-03-07T07:08:20.178Z,215.10
2018-03-07T07:09:20.196Z,242.50
2018-03-07T07:10:20.208Z,228.60
2018-03-07T07:11:20.227Z,224.80
2018-03-07T07:12:20.241Z,209.20
2018-03-07T07:13:20.262Z,202.50
2018-03-07T07:14:20.285Z,214.80
2018-03-07T07:15:20.296Z,217.60
2018-03-07T07:16:20.316Z,223.60
2018-03-07T07:17:20.335Z,239.20
2018-03-07T07:18:20.350Z,232.50
2018-03-07T07:19:20.372Z,235.60
2018-03-07T07:20:20.391Z,227.60
2018-03-07T07:21:20.407Z,222.00
2018-03-07T07:22:20.422Z,252.50
2018-03-07T07:23:20.441Z,229.90
2018-03-07T07:24:20.509Z,218.90
2018-03-07T07:25:20.484Z,239.50
2018-03-07T07:26:20.498Z,233.80
2018-03-07T07:27:20.516Z,263.80
2018-03-07T07:28:20.529Z,231.00
2018-03-07T07:29:20.552Z,222.00
2018-03-07T07:30:20.567Z,230.70
2018-03-07T07:31:20.586Z,237.60
2018-03-07T07:32:20.609Z,255.50
2018-03-07T07:33:20.624Z,248.70
2018-03-07T07:34:20.639Z,245.30
2018-03-07T07:35:20.660Z,251.00
2018-03-07T07:36:20.677Z,253.70
2018-03-07T07:37:20.741Z,254.90
2018-03-07T07:38:20.717Z,269.90
2018-03-07T07:39:20.731Z,250.10
2018-03-07T07:40:20.750Z,262.40
2018-03-07T07:41:20.764Z,280.00
2018-03-07T07:42:20.792Z,270.50
2018-03-07T07:43:20.812Z,262.20
2018-03-07T07:44:20.829Z,257.20
2018-03-07T07:45:20.840Z,262.80
2018-03-07T07:46:20.860Z,274.90
2018-03-07T07:47:20.891Z,278.10
2018-03-07T07:48:20.894Z,321.80
2018-03-07T07:49:20.915Z,298.90
2018-03-07T07:50:20.936Z,276.30
2018-03-07T07:51:20.952Z,293.10
2018-03-07T07:52:20.963Z,350.00
2018-03-07T07:53:21.287Z,313.50
2018-03-07T07:54:21.007Z,309.80
2018-03-07T07:55:21.019Z,296.90
2018-03-07T07:56:21.042Z,306.50
2018-03-07T07:57:21.058Z,298.60
2018-03-07T07:58:21.172Z,302.10
2018-03-07T07:59:21.098Z,333.30
2018-03-07T08:00:21.112Z,325.00
2018-03-07T08:01:21.431Z,313.90
2018-03-07T08:02:21.192Z,315.30
2018-03-07T08:03:21.204Z,336.30
2018-03-07T08:04:21.187Z,298.80
2018-03-07T08:05:21.206Z,317.80
2018-03-07T08:06:21.225Z,315.30
2018-03-07T08:07:21.233Z,323.60
2018-03-07T08:08:21.260Z,350.30
2018-03-07T08:09:21.278Z,338.30
2018-03-07T08:10:21.293Z,347.10
2018-03-07T08:11:21.620Z,345.40
2018-03-07T08:12:21.328Z,345.20
2018-03-07T08:13:21.353Z,335.70
2018-03-07T08:14:21.364Z,307.60
2018-03-07T08:15:21.386Z,309.60
2018-03-07T08:16:21.398Z,301.30
2018-03-07T08:17:21.417Z,387.80
2018-03-07T08:18:21.479Z,321.90
2018-03-07T08:19:21.458Z,329.30
2018-03-07T08:20:21.472Z,297.00
2018-03-07T08:21:21.492Z,344.00
2018-03-07T08:22:21.513Z,329.80
2018-03-07T08:23:21.532Z,374.40
2018-03-07T08:24:21.548Z,348.50
2018-03-07T08:25:21.567Z,366.20
2018-03-07T08:26:21.583Z,346.20
2018-03-07T08:27:21.605Z,346.00
2018-03-07T08:28:21.625Z,306.10
2018-03-07T08:29:21.647Z,334.30
2018-03-07T08:30:21.661Z,303.40
2018-03-07T08:31:21.675Z,343.00
2018-03-07T08:32:21.692Z,334.80
2018-03-07T08:33:21.718Z,330.50
2018-03-07T08:34:21.750Z,314.70
2018-03-07T08:35:21.750Z,299.90
2018-03-07T08:36:21.768Z,353.40
2018-03-07T08:37:21.780Z,339.40
2018-03-07T08:38:21.804Z,333.40
2018-03-07T08:39:21.818Z,308.10
2018-03-07T08:40:21.835Z,307.40
2018-03-07T08:41:21.857Z,364.30
2018-03-07T08:42:21.881Z,376.60
2018-03-07T08:43:21.899Z,319.40
2018-03-07T08:44:21.914Z,298.30
2018-03-07T08:45:21.932Z,286.70
2018-03-07T08:46:21.952Z,267.10
2018-03-07T08:47:21.969Z,276.30
2018-03-07T08:48:21.982Z,278.00
2018-03-07T08:49:22.001Z,311.10
2018-03-07T08:50:22.016Z,301.00
2018-03-07T08:51:22.036Z,299.50
2018-03-07T08:52:22.055Z,281.30
2018-03-07T08:54:22.094Z,297.70
2018-03-07T08:55:22.105Z,286.80
2018-03-07T08:56:22.137Z,308.00
2018-03-07T08:57:22.147Z,292.10
2018-03-07T08:58:22.161Z,294.30
2018-03-07T08:59:22.183Z,300.70
2018-03-07T09:00:22.200Z,287.30
2018-03-07T09:01:22.218Z,287.00
2018-03-07T09:02:22.239Z,267.60
2018-03-07T09:03:22.255Z,304.10
2018-03-07T09:04:22.269Z,294.10
2018-03-07T09:05:22.305Z,290.30
2018-03-07T09:06:22.314Z,324.50
2018-03-07T09:07:22.325Z,322.10
2018-03-07T09:08:22.349Z,328.90
2018-03-07T09:09:22.359Z,360.10
2018-03-07T09:10:22.386Z,336.10
2018-03-07T09:11:22.397Z,308.50
2018-03-07T09:12:22.419Z,336.60
2018-03-07T09:13:22.432Z,327.70
2018-03-07T09:14:22.451Z,336.90
2018-03-07T09:15:22.474Z,314.80
2018-03-07T09:16:22.485Z,305.00
2018-03-07T09:17:22.505Z,324.90
2018-03-07T09:18:22.527Z,338.60
2018-03-07T09:19:22.547Z,329.20
2018-03-07T09:20:22.562Z,292.20
2018-03-07T09:21:22.577Z,297.90
2018-03-07T09:22:22.597Z,307.00
2018-03-07T09:23:22.618Z,300.60
2018-03-07T09:24:22.632Z,309.10
2018-03-07T09:25:22.657Z,279.40
2018-03-07T09:26:22.665Z,286.50
2018-03-07T09:27:22.685Z,294.80
2018-03-07T09:28:22.715Z,288.40
2018-03-07T09:29:22.725Z,293.00
2018-03-07T09:30:22.749Z,264.50
2018-03-07T09:31:22.762Z,310.10
2018-03-07T09:32:22.778Z,280.30
2018-03-07T09:33:22.798Z,280.40
2018-03-07T09:34:22.817Z,290.20
2018-03-07T09:35:22.832Z,305.90
2018-03-07T09:36:23.104Z,258.10
2018-03-07T09:37:22.877Z,279.90
2018-03-07T09:38:22.897Z,305.40
2018-03-07T09:39:22.907Z,281.80
2018-03-07T09:40:22.927Z,323.90
2018-03-07T09:41:22.948Z,321.90
2018-03-07T09:42:22.961Z,287.80
2018-03-07T09:43:22.982Z,282.60
2018-03-07T09:44:23.003Z,295.10
2018-03-07T09:45:23.024Z,278.40
2018-03-07T09:46:23.038Z,271.30
2018-03-07T09:47:23.060Z,272.70
2018-03-07T09:48:23.079Z,293.70
2018-03-07T09:49:23.098Z,267.60
2018-03-07T09:50:23.114Z,258.90
2018-03-07T09:51:23.131Z,284.90
2018-03-07T09:52:23.152Z,308.40
2018-03-07T09:53:23.168Z,298.50
2018-03-07T09:54:23.199Z,319.60
2018-03-07T09:55:23.212Z,312.10
2018-03-07T09:56:23.299Z,314.00
2018-03-07T09:57:23.253Z,310.40
2018-03-07T09:59:23.287Z,289.30
2018-03-07T10:00:23.312Z,345.60
2018-03-07T10:01:23.319Z,322.00
2018-03-07T10:02:23.342Z,308.70
2018-03-07T10:03:23.364Z,307.20
2018-03-07T10:04:23.417Z,329.70
2018-03-07T10:05:23.393Z,305.00
2018-03-07T10:06:23.424Z,359.30
2018-03-07T10:07:23.427Z,286.40
2018-03-07T10:08:23.451Z,285.50
2018-03-07T10:09:23.470Z,292.50
2018-03-07T10:10:23.491Z,310.80
2018-03-07T10:11:23.518Z,307.30
2018-03-07T10:12:23.527Z,343.70
2018-03-07T10:13:23.573Z,314.20
2018-03-07T10:14:23.560Z,346.70
2018-03-07T10:15:23.592Z,299.60
2018-03-07T10:16:23.596Z,322.20
2018-03-07T10:17:23.620Z,265.10
2018-03-07T10:18:23.634Z,281.90
2018-03-07T10:19:23.660Z,278.60
2018-03-07T10:20:23.677Z,280.60
2018-03-07T10:21:23.691Z,268.30
2018-03-07T10:22:23.714Z,286.10
2018-03-07T10:23:23.731Z,272.80
2018-03-07T10:24:23.752Z,279.70
2018-03-07T10:25:23.775Z,300.80
2018-03-07T10:26:23.785Z,264.30
2018-03-07T10:27:23.802Z,286.80
2018-03-07T10:28:23.830Z,288.20
2018-03-07T10:29:23.842Z,263.80
2018-03-07T10:30:23.865Z,246.20
2018-03-07T10:31:23.883Z,269.10
2018-03-07T10:32:23.895Z,275.00
2018-03-07T10:33:23.916Z,245.60
2018-03-07T10:34:23.935Z,224.30
2018-03-07T10:35:23.949Z,237.00
2018-03-07T10:36:23.971Z,244.20
2018-03-07T10:37:23.991Z,266.10
2018-03-07T10:38:24.010Z,243.60
2018-03-07T10:39:24.026Z,230.30
2018-03-07T10:40:24.044Z,261.80
2018-03-07T10:41:24.068Z,282.80
2018-03-07T10:42:24.336Z,296.20
2018-03-07T10:43:24.099Z,285.50
2018-03-07T10:44:24.119Z,282.90
2018-03-07T10:45:24.136Z,266.00
2018-03-07T10:46:24.159Z,207.60
2018-03-07T10:47:24.175Z,227.30
2018-03-07T10:48:24.201Z,232.90
2018-03-07T10:49:24.218Z,223.90
2018-03-07T10:50:24.238Z,233.70
2018-03-07T10:51:24.257Z,243.10
2018-03-07T10:52:24.270Z,272.50
2018-03-07T10:53:24.289Z,255.20
2018-03-07T10:54:24.313Z,244.20
2018-03-07T10:55:24.324Z,257.70
2018-03-07T10:56:24.346Z,266.00
2018-03-07T10:57:24.364Z,249.30
2018-03-07T10:58:24.384Z,240.70
2018-03-07T10:59:24.398Z,244.80
2018-03-07T11:00:24.417Z,228.10
2018-03-07T11:01:24.439Z,225.70
2018-03-07T11:02:24.458Z,242.80
2018-03-07T11:03:24.484Z,237.80
2018-03-07T11:04:24.750Z,242.30
2018-03-07T11:05:24.513Z,249.60
2018-03-07T11:06:24.538Z,238.60
2018-03-07T11:07:24.553Z,228.80
2018-03-07T11:08:24.623Z,240.10
2018-03-07T11:09:24.591Z,204.60
2018-03-07T11:10:24.611Z,218.80
2018-03-07T11:11:24.635Z,184.90
2018-03-07T11:12:24.648Z,213.80
2018-03-07T11:13:24.670Z,229.20
2018-03-07T11:14:24.688Z,210.00
2018-03-07T11:15:24.706Z,211.50
2018-03-07T11:16:24.975Z,194.60
2018-03-07T11:17:24.741Z,201.60
2018-03-07T11:18:24.764Z,209.90
2018-03-07T11:19:24.777Z,188.80
2018-03-07T11:20:24.801Z,228.60
2018-03-07T11:21:24.817Z,207.60
2018-03-07T11:22:24.843Z,197.30
2018-03-07T11:23:24.857Z,206.00
2018-03-07T11:24:24.872Z,197.90
2018-03-07T11:25:24.897Z,178.10
2018-03-07T11:26:24.916Z,171.40
2018-03-07T11:27:24.939Z,190.70
2018-03-07T11:28:24.958Z,187.90
2018-03-07T11:29:24.980Z,180.60
2018-03-07T11:30:24.990Z,195.30
2018-03-07T11:31:25.005Z,189.60
2018-03-07T11:32:25.027Z,204.60
2018-03-07T11:33:25.051Z,191.20
2018-03-07T11:34:25.068Z,171.50
2018-03-07T11:35:25.088Z,181.80
2018-03-07T11:36:25.104Z,189.60
2018-03-07T11:37:25.121Z,174.50
2018-03-07T11:38:25.142Z,196.60
2018-03-07T11:39:25.160Z,187.40
2018-03-07T11:40:25.181Z,185.10
2018-03-07T11:41:25.196Z,191.90
2018-03-07T11:42:25.226Z,189.90
2018-03-07T11:43:25.236Z,167.00
2018-03-07T11:44:25.259Z,161.90
2018-03-07T11:45:25.291Z,175.40
2018-03-07T11:46:25.296Z,174.80
2018-03-07T11:47:25.314Z,174.40
2018-03-07T11:48:25.334Z,174.90
2018-03-07T11:49:25.356Z,177.50
2018-03-07T11:50:25.371Z,171.40
2018-03-07T11:51:25.391Z,161.80
2018-03-07T11:52:25.413Z,170.20
2018-03-07T11:53:25.425Z,151.50
2018-03-07T11:54:25.444Z,153.70
2018-03-07T11:55:25.469Z,174.00
2018-03-07T11:56:25.487Z,170.30
2018-03-07T11:57:25.517Z,169.10
2018-03-07T11:58:25.527Z,179.80
2018-03-07T11:59:25.548Z,181.30
2018-03-07T12:00:25.567Z,169.90
2018-03-07T12:01:25.580Z,161.00
2018-03-07T12:02:25.600Z,167.80
2018-03-07T12:03:25.628Z,152.60
2018-03-07T12:04:25.641Z,159.20
2018-03-07T12:05:25.663Z,164.90
2018-03-07T12:06:25.682Z,179.70
2018-03-07T12:07:25.702Z,177.20
2018-03-07T12:08:25.766Z,180.70
2018-03-07T12:09:25.734Z,171.10
2018-03-07T12:10:25.757Z,166.30
2018-03-07T12:11:25.776Z,181.00
2018-03-07T12:12:25.793Z,162.10
2018-03-07T12:13:25.814Z,148.60
2018-03-07T12:14:25.841Z,157.10
2018-03-07T12:15:25.849Z,158.90
2018-03-07T12:16:25.872Z,161.70
2018-03-07T12:17:25.892Z,150.50
2018-03-07T12:18:25.911Z,152.80
2018-03-07T12:19:25.935Z,160.20
2018-03-07T12:20:25.943Z,150.20
2018-03-07T12:21:25.969Z,153.10
2018-03-07T12:22:25.988Z,149.20
2018-03-07T12:23:26.005Z,150.90
2018-03-07T12:24:26.024Z,154.90
2018-03-07T12:25:26.046Z,154.70
2018-03-07T12:26:26.067Z,163.20
2018-03-07T12:27:26.081Z,155.60
2018-03-07T12:28:26.097Z,149.10
2018-03-07T12:29:26.118Z,157.50
2018-03-07T12:30:26.138Z,158.30